Time;durP1;ratioP1;P1;durP2;ratioP2;P2;SDS_P1;SDS_P2;PMS_P1;PMS_P2;Temp;Humidity;BMP_temperature;BMP_pressure;BME280_temperature;BME280_humidity;BME280_pressure;Samples;Min_cycle;Max_cycle;Signal;HPM_P1;HPM_P2
2021/07/20 00:01:44;;;;;;;15.30;10.43;;;15.00;83.40;;;;;;5114227;28;20082;-69
2021/07/20 00:04:09;;;;;;;15.73;10.30;;;15.00;83.40;;;;;;5114358;28;20044;-69
2021/07/20 00:06:35;;;;;;;15.77;11.00;;;14.90;83.20;;;;;;5114590;28;20096;-69
2021/07/20 00:09:02;;;;;;;16.07;10.07;;;14.90;83.20;;;;;;5113761;28;20187;-69
2021/07/20 00:11:28;;;;;;;16.83;9.80;;;14.90;83.30;;;;;;5114592;28;20051;-69
2021/07/20 00:13:54;;;;;;;16.57;10.90;;;14.90;84.20;;;;;;5114442;28;20146;-69
2021/07/20 00:16:19;;;;;;;14.23;9.50;;;14.90;83.40;;;;;;5113638;28;20488;-69
2021/07/20 00:18:47;;;;;;;15.43;9.80;;;14.90;83.40;;;;;;5114383;28;20119;-69
2021/07/20 00:21:13;;;;;;;11.57;8.23;;;14.90;83.40;;;;;;5113956;27;20150;-69
2021/07/20 00:23:39;;;;;;;14.70;9.93;;;14.90;83.30;;;;;;5113775;28;20125;-69
2021/07/20 00:26:09;;;;;;;16.20;11.00;;;15.00;83.20;;;;;;5114022;28;20043;-69
2021/07/20 00:28:35;;;;;;;15.03;9.70;;;15.00;83.10;;;;;;5114110;28;20047;-69
2021/07/20 00:31:01;;;;;;;14.13;10.00;;;15.10;83.10;;;;;;5113107;28;20551;-69
2021/07/20 00:33:27;;;;;;;14.53;9.73;;;15.10;83.10;;;;;;5114033;27;20138;-69
2021/07/20 00:35:53;;;;;;;16.27;10.60;;;15.10;83.10;;;;;;5114156;28;20168;-69
2021/07/20 00:38:18;;;;;;;13.67;9.30;;;15.10;83.00;;;;;;5113049;28;20134;-69
2021/07/20 00:40:45;;;;;;;13.50;9.77;;;15.20;83.00;;;;;;5113994;28;20055;-69
2021/07/20 00:43:11;;;;;;;14.20;9.67;;;15.30;83.10;;;;;;5113817;28;20043;-69
2021/07/20 00:45:37;;;;;;;17.00;9.90;;;15.30;82.80;;;;;;5113142;28;20056;-69
2021/07/20 00:48:03;;;;;;;14.90;9.90;;;15.40;82.70;;;;;;5113526;28;20093;-69
2021/07/20 00:50:38;;;;;;;13.47;8.73;;;15.40;82.50;;;;;;5113167;28;20048;-69
2021/07/20 00:53:05;;;;;;;17.70;10.23;;;15.50;82.20;;;;;;5113632;28;20073;-69
2021/07/20 00:55:35;;;;;;;13.60;9.57;;;15.50;82.20;;;;;;5113818;28;20048;-69
2021/07/20 00:58:07;;;;;;;13.10;8.67;;;15.50;82.10;;;;;;5112542;28;20507;-69
2021/07/20 01:00:33;;;;;;;14.15;9.07;;;15.60;82.00;;;;;;5113513;28;20078;-69
2021/07/20 01:02:59;;;;;;;12.57;8.73;;;15.60;81.80;;;;;;5113636;27;20093;-69
2021/07/20 01:05:26;;;;;;;13.23;9.43;;;15.60;81.70;;;;;;5112773;28;20047;-69
2021/07/20 01:07:53;;;;;;;12.40;8.37;;;15.70;81.50;;;;;;5113543;28;20466;-69
2021/07/20 01:10:23;;;;;;;13.00;8.90;;;15.70;81.50;;;;;;5112994;28;20047;-69
2021/07/20 01:12:49;;;;;;;12.53;8.53;;;15.70;82.00;;;;;;5112820;28;20104;-69
2021/07/20 01:15:17;;;;;;;12.07;9.07;;;15.70;82.20;;;;;;5112883;28;20075;-69
2021/07/20 01:17:45;;;;;;;13.40;8.83;;;15.60;82.30;;;;;;5113447;28;20138;-69
2021/07/20 01:20:17;;;;;;;12.63;7.93;;;15.60;82.50;;;;;;5111947;28;20563;-69
2021/07/20 01:23:05;;;;;;;14.13;9.00;;;15.60;82.30;;;;;;5112652;28;20058;-69
2021/07/20 01:25:31;;;;;;;12.80;8.50;;;15.60;82.20;;;;;;5113068;28;20084;-69
2021/07/20 01:28:02;;;;;;;13.43;8.40;;;15.60;82.30;;;;;;5112149;28;20051;-69
2021/07/20 01:30:30;;;;;;;11.60;7.60;;;15.60;82.00;;;;;;5113143;28;20086;-69
2021/07/20 01:32:57;;;;;;;11.30;7.83;;;15.60;82.00;;;;;;5112382;28;20044;-69
2021/07/20 01:35:24;;;;;;;10.07;8.13;;;15.60;81.70;;;;;;5112724;28;20055;-68
2021/07/20 01:37:51;;;;;;;12.47;8.87;;;15.60;81.80;;;;;;5112929;28;20135;-69
2021/07/20 01:40:18;;;;;;;11.63;7.97;;;15.60;82.20;;;;;;5111578;28;20051;-69
2021/07/20 01:42:44;;;;;;;10.27;7.73;;;15.70;82.20;;;;;;5112893;28;20092;-69
2021/07/20 01:45:12;;;;;;;13.80;8.77;;;15.70;82.10;;;;;;5112351;28;20360;-69
2021/07/20 01:47:41;;;;;;;10.57;7.93;;;15.70;81.70;;;;;;5111846;28;20075;-69
2021/07/20 01:50:08;;;;;;;12.03;7.90;;;15.70;81.50;;;;;;5112415;28;20128;-69
2021/07/20 01:52:34;;;;;;;12.47;8.60;;;15.80;81.50;;;;;;5112567;28;20058;-68
2021/07/20 01:55:00;;;;;;;11.37;8.00;;;15.80;81.50;;;;;;5111537;28;20146;-69
2021/07/20 01:57:26;;;;;;;9.57;7.37;;;15.80;81.70;;;;;;5112730;27;20221;-69
2021/07/20 01:59:53;;;;;;;12.57;8.20;;;15.80;81.70;;;;;;5112598;28;20392;-68
2021/07/20 02:10:20;;;;;;;11.63;8.00;;;15.90;81.90;;;;;;5111992;28;20057;-69
2021/07/20 02:12:47;;;;;;;11.97;7.60;;;15.90;81.80;;;;;;5112482;28;20047;-69
2021/07/20 02:15:13;;;;;;;10.40;7.70;;;16.00;81.80;;;;;;5111058;28;20510;-68
2021/07/20 02:17:41;;;;;;;12.90;8.17;;;16.00;81.80;;;;;;5111937;28;20116;-68
2021/07/20 02:20:15;;;;;;;12.23;8.77;;;16.00;81.90;;;;;;5111840;28;20407;-69
2021/07/20 02:22:41;;;;;;;11.17;8.03;;;15.90;82.10;;;;;;5111425;28;20073;-68
2021/07/20 02:25:08;;;;;;;14.17;8.90;;;15.90;82.30;;;;;;5111707;28;20047;-69
2021/07/20 02:27:34;;;;;;;11.73;8.73;;;16.00;82.40;;;;;;5111797;28;20414;-69
2021/07/20 02:30:11;;;;;;;12.00;9.10;;;16.00;82.20;;;;;;5110930;28;20056;-69
2021/07/20 02:32:42;;;;;;;14.23;9.07;;;16.00;82.10;;;;;;5112053;28;20127;-68
2021/07/20 02:35:10;;;;;;;14.23;9.90;;;15.90;82.00;;;;;;5110877;28;20044;-69
2021/07/20 02:37:38;;;;;;;12.13;8.77;;;15.80;82.10;;;;;;5111179;28;20127;-68
2021/07/20 02:40:05;;;;;;;13.20;8.40;;;15.80;82.30;;;;;;5111478;28;20082;-69
2021/07/20 02:42:33;;;;;;;11.13;8.30;;;15.80;82.20;;;;;;5111614;28;20497;-69
2021/07/20 02:44:59;;;;;;;11.37;8.43;;;15.80;82.00;;;;;;5110954;28;20123;-69
2021/07/20 02:47:25;;;;;;;13.80;8.57;;;15.80;82.00;;;;;;5111694;28;20040;-68
2021/07/20 02:49:52;;;;;;;14.93;9.00;;;15.80;82.00;;;;;;5111548;28;20062;-69
2021/07/20 02:52:18;;;;;;;12.80;8.27;;;15.80;82.10;;;;;;5110577;28;20043;-69
2021/07/20 02:54:44;;;;;;;12.57;8.47;;;15.80;81.90;;;;;;5111541;28;20492;-68
2021/07/20 02:57:11;;;;;;;13.07;9.07;;;15.70;81.80;;;;;;5110435;28;20045;-68
2021/07/20 02:59:38;;;;;;;15.13;8.57;;;15.80;81.80;;;;;;5111519;28;20047;-69
2021/07/20 03:02:04;;;;;;;16.23;9.47;;;15.70;81.90;;;;;;5111352;28;20044;-69
2021/07/20 03:04:30;;;;;;;12.57;8.67;;;15.70;81.90;;;;;;5110833;28;20051;-69
2021/07/20 03:07:00;;;;;;;12.43;8.70;;;15.80;81.90;;;;;;5111499;28;20048;-69
2021/07/20 03:09:28;;;;;;;13.07;7.75;;;15.70;81.90;;;;;;5111517;28;20055;-69
2021/07/20 03:12:00;;;;;;;12.67;8.97;;;15.80;82.00;;;;;;5110617;28;20054;-69
2021/07/20 03:14:28;;;;;;;13.03;9.53;;;15.80;82.10;;;;;;5111513;28;20096;-68
2021/07/20 03:16:55;;;;;;;12.67;8.20;;;15.80;82.10;;;;;;5111434;28;20506;-69
2021/07/20 03:19:25;;;;;;;12.00;8.73;;;15.80;82.10;;;;;;5110267;28;20476;-69
2021/07/20 03:21:54;;;;;;;12.80;8.70;;;15.80;83.00;;;;;;5111184;28;20178;-69
2021/07/20 03:24:21;;;;;;;10.73;8.83;;;15.80;82.20;;;;;;5111156;28;20051;-69
2021/07/20 03:26:48;;;;;;;11.90;8.17;;;15.80;82.20;;;;;;5110678;28;20433;-69
2021/07/20 03:29:15;;;;;;;12.30;8.47;;;15.80;82.50;;;;;;5110962;28;20073;-69
2021/07/20 03:31:43;;;;;;;14.47;9.23;;;15.80;82.70;;;;;;5111658;28;20148;-68
2021/07/20 03:34:09;;;;;;;12.73;9.00;;;15.80;82.90;;;;;;5110361;28;20147;-69
2021/07/20 03:36:36;;;;;;;14.93;9.40;;;15.80;82.90;;;;;;5111251;28;20104;-68
2021/07/20 03:39:03;;;;;;;12.73;8.33;;;15.80;83.00;;;;;;5110813;28;20055;-69
2021/07/20 03:41:30;;;;;;;11.27;8.13;;;15.80;83.00;;;;;;5110582;28;20040;-69
2021/07/20 03:43:57;;;;;;;11.63;8.07;;;15.80;83.00;;;;;;5110589;28;20048;-68
2021/07/20 03:46:23;;;;;;;13.13;9.20;;;15.80;83.00;;;;;;5112661;28;20043;-69
2021/07/20 03:48:51;;;;;;;13.93;8.27;;;15.80;82.90;;;;;;5114140;28;20040;-69
2021/07/20 03:51:20;;;;;;;12.77;8.80;;;15.80;83.00;;;;;;5113891;28;20048;-69
2021/07/20 03:53:46;;;;;;;13.40;8.50;;;15.80;82.90;;;;;;5113517;28;20071;-69
2021/07/20 03:56:14;;;;;;;13.87;9.13;;;15.80;82.80;;;;;;5114071;28;20040;-69
2021/07/20 03:58:41;;;;;;;13.07;8.67;;;15.80;82.90;;;;;;5114083;28;20039;-69
2021/07/20 04:01:07;;;;;;;16.83;9.87;;;15.80;82.80;;;;;;5113097;28;20052;-68
2021/07/20 04:03:35;;;;;;;12.70;8.83;;;15.80;83.60;;;;;;5111102;28;20048;-68
2021/07/20 04:06:03;;;;;;;12.90;9.40;;;15.80;82.80;;;;;;5113682;28;20058;-69
2021/07/20 04:08:31;;;;;;;12.37;8.97;;;15.80;82.90;;;;;;5113202;28;20063;-69
2021/07/20 04:10:58;;;;;;;14.20;8.77;;;15.80;82.80;;;;;;5114092;28;20134;-69
2021/07/20 04:13:24;;;;;;;14.40;8.43;;;15.80;82.80;;;;;;5113439;28;20044;-69
2021/07/20 04:16:03;;;;;;;12.63;8.97;;;15.80;82.80;;;;;;5113065;28;20450;-69
2021/07/20 04:18:30;;;;;;;11.93;8.93;;;15.90;83.00;;;;;;5113513;27;20040;-68
2021/07/20 04:20:57;;;;;;;12.40;9.50;;;15.80;83.00;;;;;;5113758;28;20052;-69
2021/07/20 04:23:24;;;;;;;14.93;9.10;;;15.90;83.20;;;;;;5112597;28;20450;-69
2021/07/20 04:25:52;;;;;;;14.50;10.30;;;15.80;83.10;;;;;;5113133;28;20224;-69
2021/07/20 04:28:22;;;;;;;16.07;10.17;;;15.80;83.30;;;;;;5112699;28;20404;-69
2021/07/20 04:30:49;;;;;;;17.77;10.43;;;15.90;83.60;;;;;;5112770;28;20066;-69
2021/07/20 04:33:31;;;;;;;14.40;9.10;;;15.90;83.60;;;;;;5112814;28;20036;-69
2021/07/20 04:35:57;;;;;;;14.50;9.00;;;15.90;83.60;;;;;;5110601;28;20070;-69
2021/07/20 04:38:31;;;;;;;13.83;9.53;;;15.90;83.60;;;;;;5112870;28;20047;-69
2021/07/20 04:40:58;;;;;;;15.53;9.17;;;15.90;83.60;;;;;;5111162;28;20058;-69
2021/07/20 04:43:23;;;;;;;11.83;8.23;;;16.00;83.70;;;;;;5112060;28;20135;-69
2021/07/20 04:45:53;;;;;;;14.60;10.03;;;15.90;84.40;;;;;;5113730;28;20135;-69
2021/07/20 04:48:19;;;;;;;11.43;9.07;;;15.90;83.40;;;;;;5113714;27;20138;-69
2021/07/20 04:50:45;;;;;;;13.50;9.27;;;15.90;83.50;;;;;;5113129;28;20138;-69
2021/07/20 04:53:13;;;;;;;12.87;9.67;;;16.00;83.60;;;;;;5113580;28;20055;-69
2021/07/20 04:55:40;;;;;;;14.80;9.73;;;16.00;83.90;;;;;;5113817;28;20043;-69
2021/07/20 04:58:06;;;;;;;14.43;9.40;;;16.00;83.90;;;;;;5111663;28;20051;-69
2021/07/20 05:00:34;;;;;;;12.30;8.57;;;16.00;83.70;;;;;;5113678;28;20418;-69
2021/07/20 05:03:01;;;;;;;16.17;9.67;;;16.00;83.70;;;;;;5113347;28;20051;-70
2021/07/20 05:05:30;;;;;;;13.70;9.60;;;16.00;83.90;;;;;;5113011;28;20051;-69
2021/07/20 05:07:58;;;;;;;13.23;8.87;;;16.00;84.20;;;;;;5113594;28;20092;-69
2021/07/20 05:10:25;;;;;;;14.03;9.50;;;16.00;84.40;;;;;;5113059;28;20051;-69
2021/07/20 05:12:51;;;;;;;14.40;9.20;;;16.00;84.40;;;;;;5112574;28;20047;-69
2021/07/20 05:15:19;;;;;;;16.77;10.37;;;16.10;84.60;;;;;;5113258;28;20051;-69
2021/07/20 05:17:46;;;;;;;13.90;9.73;;;16.10;84.80;;;;;;5112759;28;20040;-69
2021/07/20 05:20:14;;;;;;;13.67;9.77;;;16.10;84.80;;;;;;5112749;28;20150;-68
2021/07/20 05:22:41;;;;;;;16.53;10.40;;;16.10;84.80;;;;;;5113283;28;20118;-68
2021/07/20 05:25:09;;;;;;;12.53;9.63;;;16.10;84.80;;;;;;5112085;28;20409;-68
2021/07/20 05:27:37;;;;;;;14.87;9.37;;;16.20;84.70;;;;;;5113227;28;20048;-68
2021/07/20 05:30:07;;;;;;;14.23;10.77;;;16.10;84.60;;;;;;5112860;28;20048;-68
2021/07/20 05:32:36;;;;;;;13.27;9.50;;;16.10;84.50;;;;;;5112380;28;20092;-68
2021/07/20 05:35:03;;;;;;;14.33;9.23;;;16.20;85.20;;;;;;5112804;28;20078;-69
2021/07/20 05:37:34;;;;;;;13.63;9.67;;;16.10;84.80;;;;;;5112811;28;20047;-69
2021/07/20 05:40:00;;;;;;;12.95;9.18;;;16.10;84.80;;;;;;5111845;28;20050;-68
2021/07/20 05:42:28;;;;;;;14.10;9.23;;;16.20;84.80;;;;;;5113302;28;20510;-71
2021/07/20 05:44:54;;;;;;;14.90;10.03;;;16.20;84.80;;;;;;5112912;28;20119;-69
2021/07/20 05:47:20;;;;;;;14.63;9.87;;;16.20;84.90;;;;;;5111829;28;20048;-69
2021/07/20 05:49:46;;;;;;;13.60;10.10;;;16.20;84.90;;;;;;5112581;28;20092;-69
2021/07/20 05:52:14;;;;;;;13.70;9.23;;;16.30;84.70;;;;;;5112135;28;20051;-69
2021/07/20 05:54:45;;;;;;;13.93;9.70;;;16.30;84.70;;;;;;5112035;27;20117;-69
2021/07/20 05:57:12;;;;;;;15.00;9.87;;;16.40;84.30;;;;;;5112145;28;20465;-69
2021/07/20 05:59:40;;;;;;;14.93;9.60;;;16.40;84.20;;;;;;5112486;28;20324;-69
2021/07/20 06:02:10;;;;;;;15.63;10.30;;;16.50;84.20;;;;;;5111398;28;20511;-69
2021/07/20 06:04:37;;;;;;;15.80;9.40;;;16.50;83.80;;;;;;5112210;28;20518;-69
2021/07/20 06:07:04;;;;;;;14.53;9.43;;;16.60;83.80;;;;;;5111267;28;20128;-69
2021/07/20 06:09:31;;;;;;;16.47;9.40;;;16.70;83.60;;;;;;5112167;28;20130;-69
2021/07/20 06:11:59;;;;;;;13.07;9.40;;;16.70;83.40;;;;;;5112286;28;20052;-69
2021/07/20 06:14:24;;;;;;;14.90;9.63;;;16.80;83.20;;;;;;5111610;28;20067;-68
2021/07/20 06:16:51;;;;;;;13.77;8.63;;;16.80;83.20;;;;;;5112292;28;20083;-69
2021/07/20 06:19:17;;;;;;;14.20;9.53;;;16.80;83.00;;;;;;5111864;28;20044;-69
2021/07/20 06:21:44;;;;;;;12.57;9.03;;;16.90;83.60;;;;;;5111220;28;20472;-69
2021/07/20 06:24:11;;;;;;;12.53;9.07;;;16.90;82.40;;;;;;5112064;28;20062;-69
2021/07/20 06:26:38;;;;;;;12.97;9.40;;;17.00;81.80;;;;;;5112278;28;20068;-68
2021/07/20 06:29:06;;;;;;;12.57;8.80;;;17.10;81.50;;;;;;5111036;28;20060;-69
2021/07/20 06:31:33;;;;;;;12.57;9.37;;;17.10;81.20;;;;;;5111669;28;20048;-68
2021/07/20 06:33:59;;;;;;;12.23;9.23;;;17.20;80.90;;;;;;5111924;28;20086;-69
2021/07/20 06:36:25;;;;;;;11.93;8.87;;;17.20;80.70;;;;;;5110785;28;20138;-69
2021/07/20 06:38:53;;;;;;;12.67;8.10;;;17.30;80.10;;;;;;5111468;28;20051;-69
2021/07/20 06:41:19;;;;;;;12.90;8.23;;;17.30;79.10;;;;;;5108173;28;20452;-69
2021/07/20 06:43:45;;;;;;;13.37;8.13;;;17.40;78.70;;;;;;5110020;28;20046;-69
2021/07/20 06:46:13;;;;;;;12.07;8.17;;;17.40;78.60;;;;;;5109822;28;20047;-67
2021/07/20 06:48:45;;;;;;;12.73;9.37;;;17.50;77.60;;;;;;5111148;28;20051;-68
2021/07/20 06:51:11;;;;;;;11.80;8.77;;;17.50;77.20;;;;;;5110109;28;20122;-68
2021/07/20 06:53:38;;;;;;;11.90;8.20;;;17.60;77.50;;;;;;5110645;28;20119;-67
2021/07/20 06:56:07;;;;;;;12.80;8.83;;;17.60;77.30;;;;;;5108413;28;20474;-67
2021/07/20 06:58:34;;;;;;;10.17;8.47;;;17.70;76.30;;;;;;5110815;28;20377;-68
2021/07/20 07:01:02;;;;;;;13.03;8.90;;;17.70;76.10;;;;;;5110204;28;20408;-69
2021/07/20 07:03:42;;;;;;;11.43;8.97;;;17.70;75.80;;;;;;5109337;28;20047;-68
2021/07/20 07:06:09;;;;;;;14.43;9.67;;;17.70;76.20;;;;;;5110556;28;20051;-69
2021/07/20 07:08:36;;;;;;;13.13;9.60;;;17.70;76.20;;;;;;5110472;28;20491;-67
2021/07/20 07:11:02;;;;;;;12.77;8.73;;;17.80;75.40;;;;;;5109739;28;20383;-69
2021/07/20 07:13:32;;;;;;;14.30;9.37;;;17.80;75.50;;;;;;5110525;28;20127;-68
2021/07/20 07:15:59;;;;;;;13.50;8.70;;;17.80;75.60;;;;;;5108809;28;20108;-68
2021/07/20 07:18:26;;;;;;;13.20;8.93;;;17.90;75.90;;;;;;5110020;28;20088;-69
2021/07/20 07:20:54;;;;;;;12.97;8.53;;;18.00;75.40;;;;;;5113502;28;20142;-68
2021/07/20 07:23:20;;;;;;;10.43;7.70;;;18.00;74.40;;;;;;5114167;28;20436;-68
2021/07/20 07:25:50;;;;;;;12.10;8.67;;;18.10;73.40;;;;;;5114100;28;20043;-68
2021/07/20 07:28:17;;;;;;;13.13;8.27;;;18.00;72.40;;;;;;5114126;28;20448;-69
2021/07/20 07:30:43;;;;;;;12.93;8.17;;;17.90;73.10;;;;;;5114870;28;20178;-69
2021/07/20 07:33:10;;;;;;;12.03;7.73;;;18.00;73.10;;;;;;5113498;28;20043;-69
2021/07/20 07:35:36;;;;;;;12.10;8.60;;;18.00;72.80;;;;;;5113905;28;20052;-69
2021/07/20 07:38:02;;;;;;;12.80;8.70;;;18.00;72.20;;;;;;5114200;28;20040;-69
2021/07/20 07:40:29;;;;;;;12.60;8.10;;;18.00;72.40;;;;;;5113601;28;20054;-69
2021/07/20 07:42:57;;;;;;;12.03;8.70;;;18.00;73.00;;;;;;5114229;28;20480;-68
2021/07/20 07:45:23;;;;;;;12.10;8.57;;;18.00;72.40;;;;;;5110885;28;20040;-69
2021/07/20 07:47:49;;;;;;;13.30;8.10;;;18.10;72.20;;;;;;5113886;28;20482;-70
2021/07/20 07:50:15;;;;;;;13.10;8.73;;;18.10;72.00;;;;;;5114081;28;20047;-70
2021/07/20 07:52:42;;;;;;;12.23;8.70;;;18.10;71.90;;;;;;5113979;28;20050;-68
2021/07/20 07:55:09;;;;;;;10.70;8.27;;;18.20;71.40;;;;;;5114427;28;20071;-69
2021/07/20 07:57:36;;;;;;;12.67;8.87;;;18.20;70.90;;;;;;5113849;28;20120;-69
2021/07/20 08:00:06;;;;;;;11.80;7.57;;;18.20;70.60;;;;;;5113132;28;20044;-69
2021/07/20 08:02:35;;;;;;;9.10;6.93;;;18.20;70.60;;;;;;5113737;28;20047;-70
2021/07/20 08:05:01;;;;;;;9.07;7.13;;;18.20;70.10;;;;;;5110922;28;20043;-69
2021/07/20 08:07:29;;;;;;;10.17;7.40;;;18.20;69.60;;;;;;5112858;28;20132;-69
2021/07/20 08:09:57;;;;;;;11.57;7.20;;;18.20;69.40;;;;;;5113348;28;20407;-68
2021/07/20 08:12:24;;;;;;;12.23;8.63;;;18.30;69.10;;;;;;5113238;28;20142;-70
2021/07/20 08:14:50;;;;;;;11.13;8.13;;;18.30;69.20;;;;;;5113180;28;20195;-68
2021/07/20 08:17:17;;;;;;;10.37;7.47;;;18.30;69.00;;;;;;5113626;28;20075;-69
2021/07/20 08:19:43;;;;;;;9.90;7.70;;;18.40;68.50;;;;;;5114190;28;20043;-69
2021/07/20 08:22:14;;;;;;;11.20;7.77;;;18.50;68.70;;;;;;5112961;28;20052;-70
2021/07/20 08:25:00;;;;;;;12.23;8.23;;;18.70;68.60;;;;;;5113922;28;20888;-69
2021/07/20 08:27:40;;;;;;;8.87;7.47;;;19.00;67.40;;;;;;5112023;28;20168;-69
2021/07/20 08:30:07;;;;;;;11.57;7.73;;;19.20;67.50;;;;;;5111181;28;20059;-69
2021/07/20 08:32:40;;;;;;;10.47;7.57;;;19.30;66.50;;;;;;5112029;28;20385;-69
2021/07/20 08:35:11;;;;;;;11.67;8.27;;;19.30;66.00;;;;;;5105404;28;20122;-68
2021/07/20 08:37:40;;;;;;;9.85;7.75;;;19.50;66.20;;;;;;5108773;28;20115;-70
2021/07/20 08:40:22;;;;;;;8.73;6.97;;;19.70;65.50;;;;;;5102161;28;20368;-70
2021/07/20 08:43:13;;;;;;;10.33;7.10;;;19.60;64.80;;;;;;5102741;28;21213;-69
2021/07/20 08:45:57;;;;;;;9.32;7.28;;;19.70;63.60;;;;;;5107467;28;20047;-68
2021/07/20 08:48:37;;;;;;;10.57;6.93;;;19.80;64.20;;;;;;5110316;28;20043;-70
2021/07/20 08:51:09;;;;;;;9.15;6.78;;;20.00;64.30;;;;;;5108992;28;20148;-70
2021/07/20 08:53:47;;;;;;;;;;;20.10;64.00;;;;;;5110906;28;20127;-70
2021/07/20 08:56:16;;;;;;;10.47;7.23;;;20.10;62.70;;;;;;5108894;28;20233;-69
2021/07/20 08:58:45;;;;;;;11.57;7.20;;;20.10;64.00;;;;;;5110230;28;20462;-68
2021/07/20 09:01:16;;;;;;;9.70;7.33;;;20.00;63.20;;;;;;5109666;28;20126;-69
2021/07/20 09:04:07;;;;;;;12.32;7.95;;;20.00;63.00;;;;;;5109521;28;20052;-69
2021/07/20 09:07:10;;;;;;;9.67;7.10;;;20.00;63.80;;;;;;5109956;28;20083;-69
2021/07/20 09:09:45;;;;;;;9.30;7.00;;;19.90;63.50;;;;;;5109909;28;20082;-69
2021/07/20 09:12:20;;;;;;;9.30;7.37;;;19.90;63.30;;;;;;5109333;28;20142;-69
2021/07/20 09:14:57;;;;;;;8.37;7.10;;;19.90;63.90;;;;;;5110090;27;20103;-70
2021/07/20 09:17:45;;;;;;;10.20;7.17;;;19.90;63.40;;;;;;5108562;28;20507;-67
2021/07/20 09:20:19;;;;;;;11.83;7.47;;;20.00;63.80;;;;;;5109470;28;20052;-69
2021/07/20 09:23:11;;;;;;;12.87;8.20;;;20.10;63.20;;;;;;5108819;28;20093;-70
2021/07/20 09:25:54;;;;;;;9.27;7.13;;;20.40;63.10;;;;;;5109012;28;20066;-71
2021/07/20 09:28:34;;;;;;;9.15;7.05;;;20.60;62.80;;;;;;5109329;28;20079;-70
2021/07/20 09:31:06;;;;;;;9.73;7.45;;;20.80;63.10;;;;;;5108577;28;20047;-69
2021/07/20 09:33:58;;;;;;;9.30;7.32;;;20.90;63.60;;;;;;5109224;28;20048;-68
2021/07/20 09:36:31;;;;;;;10.45;7.40;;;21.00;62.00;;;;;;5109326;28;20055;-69
2021/07/20 09:39:03;;;;;;;7.78;5.70;;;20.90;62.10;;;;;;5107830;28;20052;-70
2021/07/20 09:41:55;;;;;;;8.10;5.65;;;21.00;60.50;;;;;;5109362;28;20122;-71
2021/07/20 09:44:36;;;;;;;7.72;5.38;;;21.20;59.40;;;;;;5108703;28;20478;-71
2021/07/20 09:47:07;;;;;;;8.55;5.85;;;21.40;58.30;;;;;;5108176;27;20097;-71
2021/07/20 09:49:52;;;;;;;;;;;21.60;58.20;;;;;;5110042;28;20047;-70
2021/07/20 09:52:32;;;;;;;10.48;6.05;;;21.70;57.70;;;;;;5088167;28;19981;-72
2021/07/20 09:55:07;;;;;;;9.50;6.25;;;21.60;55.50;;;;;;5088944;28;20040;-70
2021/07/20 09:57:55;;;;;;;8.82;6.47;;;21.50;56.70;;;;;;5103757;28;20055;-70
2021/07/20 10:00:26;;;;;;;10.68;6.30;;;21.30;57.70;;;;;;5106459;28;20105;-70
2021/07/20 10:03:04;;;;;;;8.03;6.37;;;21.20;57.60;;;;;;5105455;28;20055;-71
2021/07/20 10:05:34;;;;;;;7.50;6.13;;;21.00;58.10;;;;;;5108989;28;20457;-70
2021/07/20 10:08:19;;;;;;;12.50;7.07;;;20.80;59.10;;;;;;5108180;28;20044;-71
2021/07/20 10:10:55;;;;;;;9.43;7.43;;;20.70;59.20;;;;;;5108555;28;20130;-70
2021/07/20 10:13:32;;;;;;;10.00;7.00;;;20.60;59.20;;;;;;5107975;28;20062;-71
2021/07/20 10:16:05;;;;;;;9.17;5.90;;;20.50;59.00;;;;;;5108954;28;20055;-70
2021/07/20 10:18:42;;;;;;;10.10;6.47;;;20.40;58.80;;;;;;5108724;28;20047;-71
2021/07/20 10:21:12;;;;;;;8.57;5.70;;;20.40;58.70;;;;;;5107457;28;20488;-70
2021/07/20 10:23:42;;;;;;;11.32;7.05;;;20.40;59.60;;;;;;5108194;28;20054;-71
2021/07/20 10:26:44;;;;;;;7.73;5.87;;;20.40;59.50;;;;;;5108058;28;20487;-70
2021/07/20 10:29:20;;;;;;;8.37;5.93;;;20.40;60.10;;;;;;5095399;28;20075;-71
2021/07/20 10:32:28;;;;;;;9.33;6.47;;;20.50;60.50;;;;;;5107999;28;20040;-71
2021/07/20 10:34:58;;;;;;;8.47;5.23;;;20.70;59.40;;;;;;5043427;28;20052;-71
2021/07/20 10:37:29;;;;;;;8.15;5.43;;;20.90;58.50;;;;;;5095395;28;20641;-70
2021/07/20 10:40:02;;;;;;;8.82;5.82;;;21.10;57.90;;;;;;5107798;28;20119;-73
2021/07/20 10:42:39;;;;;;;7.27;5.47;;;21.20;57.10;;;;;;5111987;28;20492;-72
2021/07/20 10:45:08;;;;;;;6.77;5.40;;;21.20;57.10;;;;;;5110219;28;20039;-71
2021/07/20 10:47:57;;;;;;;8.27;5.60;;;21.20;57.20;;;;;;5110997;28;20047;-71
2021/07/20 10:50:31;;;;;;;8.70;5.43;;;21.30;57.10;;;;;;5107321;28;20051;-71
2021/07/20 10:53:16;;;;;;;8.37;4.77;;;21.50;57.20;;;;;;5111134;28;20044;-72
2021/07/20 10:56:15;;;;;;;7.33;5.50;;;21.60;56.70;;;;;;5106710;28;20404;-71
2021/07/20 10:58:51;;;;;;;7.37;5.60;;;21.80;56.90;;;;;;5111429;28;20070;-71
2021/07/20 11:01:32;;;;;;;7.53;5.32;;;21.90;56.60;;;;;;5111378;28;20048;-71
2021/07/20 11:04:16;;;;;;;7.30;5.10;;;21.80;56.80;;;;;;5110755;28;20055;-71
2021/07/20 11:06:46;;;;;;;8.00;5.33;;;21.80;56.20;;;;;;5110990;28;20044;-72
2021/07/20 11:09:21;;;;;;;6.80;4.90;;;21.70;56.40;;;;;;5110404;28;20047;-72
2021/07/20 11:11:56;;;;;;;7.67;5.50;;;21.60;55.70;;;;;;5110832;28;20204;-72
2021/07/20 11:14:28;;;;;;;8.03;4.90;;;21.50;55.70;;;;;;5110762;28;20046;-72
2021/07/20 11:16:55;;;;;;;8.00;5.00;;;21.40;56.50;;;;;;5110243;28;20044;-72
2021/07/20 11:19:24;;;;;;;7.67;4.90;;;21.40;57.00;;;;;;5110648;28;20052;-72
2021/07/20 11:21:50;;;;;;;9.40;4.87;;;21.30;57.10;;;;;;5111011;28;20126;-71
2021/07/20 11:24:18;;;;;;;7.80;5.43;;;21.30;57.10;;;;;;5110160;28;20423;-72
2021/07/20 11:26:44;;;;;;;7.10;5.10;;;21.20;57.30;;;;;;5111274;28;20044;-72
2021/07/20 11:29:11;;;;;;;6.90;5.03;;;21.20;57.80;;;;;;5110767;28;20070;-72
2021/07/20 11:32:01;;;;;;;8.03;4.80;;;21.20;57.70;;;;;;5110297;28;20075;-71
2021/07/20 11:34:46;;;;;;;7.40;5.22;;;21.30;58.30;;;;;;5110910;28;20381;-71
2021/07/20 11:37:17;;;;;;;8.27;5.23;;;21.30;58.20;;;;;;5110691;28;20051;-72
2021/07/20 11:40:05;;;;;;;7.55;5.82;;;21.30;57.60;;;;;;5110274;28;20048;-72
2021/07/20 11:42:56;;;;;;;7.27;5.50;;;21.30;57.20;;;;;;5111200;28;20090;-71
2021/07/20 11:45:24;;;;;;;;;;;21.40;57.60;;;;;;5110382;28;20174;-71
2021/07/20 11:47:58;;;;;;;9.17;5.30;;;21.50;58.80;;;;;;5111111;28;19964;-71
2021/07/20 11:50:44;;;;;;;8.10;5.60;;;21.50;58.30;;;;;;5110743;28;20062;-71
2021/07/20 11:53:31;;;;;;;7.20;5.50;;;21.40;58.20;;;;;;5109952;28;20055;-71
2021/07/20 11:56:15;;;;;;;7.67;6.00;;;21.30;59.70;;;;;;5111055;28;20147;-71
2021/07/20 11:58:59;;;;;;;7.33;5.67;;;21.20;59.60;;;;;;5110320;28;20204;-71
2021/07/20 12:01:50;;;;;;;8.03;5.10;;;21.20;60.30;;;;;;5111224;28;20503;-71
2021/07/20 12:04:38;;;;;;;7.22;5.85;;;21.10;60.70;;;;;;5110753;28;20048;-71
2021/07/20 12:07:25;;;;;;;8.17;5.57;;;21.10;61.30;;;;;;5112312;28;20142;-71
2021/07/20 12:10:06;;;;;;;10.23;6.53;;;21.10;61.20;;;;;;5114831;28;20071;-71
2021/07/20 12:12:49;;;;;;;7.60;5.85;;;21.00;61.00;;;;;;5114601;28;20047;-71
2021/07/20 12:15:25;;;;;;;8.03;6.30;;;21.00;61.30;;;;;;5114274;28;20055;-72
2021/07/20 12:17:52;;;;;;;9.20;6.20;;;21.10;61.50;;;;;;5114333;28;20062;-72
2021/07/20 12:20:23;;;;;;;7.90;6.10;;;21.20;61.60;;;;;;5113251;28;20042;-72
2021/07/20 12:22:51;;;;;;;11.13;5.88;;;21.20;61.80;;;;;;5114629;28;20118;-71
2021/07/20 12:25:18;;;;;;;7.63;5.77;;;21.30;61.20;;;;;;5114089;28;20100;-71
2021/07/20 12:27:47;;;;;;;7.67;5.50;;;21.30;61.10;;;;;;5113302;28;20048;-72
2021/07/20 12:30:15;;;;;;;6.73;5.23;;;21.20;61.60;;;;;;5113668;28;20055;-72
2021/07/20 12:32:42;;;;;;;7.40;5.00;;;21.10;62.00;;;;;;5114420;28;20047;-72
2021/07/20 12:35:11;;;;;;;7.40;4.90;;;21.00;62.30;;;;;;5113475;28;20050;-72
2021/07/20 12:37:39;;;;;;;8.40;5.40;;;21.00;62.20;;;;;;5114150;28;20048;-72
2021/07/20 12:40:08;;;;;;;9.93;5.37;;;20.90;62.60;;;;;;5113771;28;20137;-72
2021/07/20 12:42:35;;;;;;;6.93;5.17;;;20.90;63.40;;;;;;5113243;28;20051;-71
2021/07/20 12:45:06;;;;;;;6.80;5.30;;;20.90;63.30;;;;;;5113682;28;20075;-71
2021/07/20 12:47:44;;;;;;;8.83;5.67;;;20.90;63.20;;;;;;5114051;28;20073;-72
2021/07/20 12:50:13;;;;;;;6.37;4.90;;;20.90;63.40;;;;;;5112419;28;20051;-72
2021/07/20 12:52:42;;;;;;;7.57;5.13;;;21.00;63.10;;;;;;5113565;28;20039;-72
2021/07/20 12:55:12;;;;;;;8.10;5.23;;;21.10;63.50;;;;;;5112435;28;20426;-72
2021/07/20 12:57:38;;;;;;;6.17;4.17;;;21.30;62.60;;;;;;5113728;28;20039;-72
2021/07/20 13:00:07;;;;;;;6.33;4.80;;;21.40;61.20;;;;;;5113219;27;20052;-71
2021/07/20 13:02:34;;;;;;;8.27;5.00;;;21.50;61.20;;;;;;5112544;28;20055;-71
2021/07/20 13:05:05;;;;;;;8.60;5.00;;;21.60;61.20;;;;;;5113291;28;20047;-73
2021/07/20 13:07:34;;;;;;;6.45;4.70;;;21.70;60.80;;;;;;5113707;28;20066;-71